createdAt,value
2022-10-06T00:02:09.695Z,11.65
2022-10-06T00:05:12.811Z,13.50
2022-10-06T00:08:15.908Z,9.25
2022-10-06T00:11:18.929Z,7.18
2022-10-06T00:14:21.971Z,5.03
2022-10-06T00:17:24.910Z,6.50
2022-10-06T00:20:28.625Z,5.95
2022-10-06T00:23:32.137Z,3.95
2022-10-06T00:26:35.619Z,3.65
2022-10-06T00:29:39.022Z,7.28
2022-10-06T00:32:41.977Z,3.10
2022-10-06T00:35:45.650Z,4.38
2022-10-06T00:38:50.044Z,6.03
2022-10-06T00:41:53.067Z,10.30
2022-10-06T00:45:04.593Z,5.90
2022-10-06T00:48:22.848Z,8.82
2022-10-06T00:51:27.811Z,8.88
2022-10-06T00:57:37.866Z,4.88
2022-10-06T01:00:42.773Z,5.70
2022-10-06T01:06:55.902Z,6.63
2022-10-06T01:09:59.189Z,8.10
2022-10-06T01:13:02.872Z,6.22
2022-10-06T01:16:27.587Z,5.15
2022-10-06T01:19:51.953Z,7.80
2022-10-06T01:23:07.742Z,5.28
2022-10-06T01:26:13.135Z,4.13
2022-10-06T01:29:16.232Z,5.45
2022-10-06T01:32:19.377Z,8.32
2022-10-06T01:35:22.761Z,8.95
2022-10-06T01:38:25.957Z,7.88
2022-10-06T01:41:34.997Z,6.82
2022-10-06T01:44:39.055Z,5.65
2022-10-06T01:47:42.102Z,5.97
2022-10-06T01:50:46.918Z,8.43
2022-10-06T01:53:50.985Z,9.57
2022-10-06T01:56:54.675Z,11.30
2022-10-06T01:59:58.440Z,11.13
2022-10-06T02:03:01.490Z,16.85
2022-10-06T02:06:04.957Z,6.10
2022-10-06T02:09:08.327Z,7.32
2022-10-06T02:12:11.742Z,8.00
2022-10-06T02:15:17.139Z,5.53
2022-10-06T02:18:20.133Z,6.68
2022-10-06T02:21:25.207Z,16.20
2022-10-06T02:24:28.789Z,7.18
2022-10-06T02:27:31.803Z,5.57
2022-10-06T02:30:35.663Z,10.13
2022-10-06T02:33:41.098Z,4.80
2022-10-06T02:36:44.210Z,3.30
2022-10-06T02:39:48.153Z,4.80
2022-10-06T02:42:51.889Z,1.23
2022-10-06T02:45:59.480Z,3.55
2022-10-06T02:49:03.037Z,1.00
2022-10-06T02:52:06.007Z,1.73
2022-10-06T02:55:10.356Z,1.73
2022-10-06T02:58:13.682Z,1.30
2022-10-06T03:01:18.709Z,1.33
2022-10-06T03:04:21.939Z,1.98
2022-10-06T03:07:25.568Z,0.95
2022-10-06T03:10:28.666Z,2.85
2022-10-06T03:13:32.154Z,4.13
2022-10-06T03:16:41.788Z,2.78
2022-10-06T03:19:57.472Z,1.35
2022-10-06T03:23:01.102Z,1.90
2022-10-06T03:26:04.266Z,2.58
2022-10-06T03:29:11.335Z,2.05
2022-10-06T03:32:18.216Z,7.40
2022-10-06T03:35:21.295Z,10.65
2022-10-06T03:38:24.455Z,4.47
2022-10-06T03:41:32.940Z,2.63
2022-10-06T03:44:36.721Z,4.88
2022-10-06T03:47:40.554Z,5.03
2022-10-06T03:50:45.465Z,1.98
2022-10-06T03:53:51.403Z,3.20
2022-10-06T03:56:55.051Z,2.53
2022-10-06T04:00:00.394Z,9.90
2022-10-06T04:03:03.526Z,3.05
2022-10-06T04:06:08.350Z,2.78
2022-10-06T04:12:19.537Z,2.75
2022-10-06T04:15:22.638Z,3.55
2022-10-06T04:18:25.780Z,17.80
2022-10-06T04:21:30.972Z,9.88
2022-10-06T04:24:34.555Z,6.03
2022-10-06T04:27:38.326Z,9.00
2022-10-06T04:30:44.901Z,3.45
2022-10-06T04:33:50.928Z,3.95
2022-10-06T04:36:54.226Z,4.25
2022-10-06T04:39:57.433Z,7.57
2022-10-06T04:43:01.058Z,5.57
2022-10-06T04:46:24.028Z,7.35
2022-10-06T04:49:28.930Z,6.07
2022-10-06T04:52:32.925Z,6.73
2022-10-06T04:55:36.059Z,5.80
2022-10-06T04:58:42.457Z,10.38
2022-10-06T05:01:46.270Z,3.38
2022-10-06T05:04:50.460Z,2.63
2022-10-06T05:11:03.179Z,2.17
2022-10-06T05:14:06.841Z,3.13
2022-10-06T05:17:12.987Z,2.90
2022-10-06T05:20:16.726Z,1.98
2022-10-06T05:23:19.886Z,2.30
2022-10-06T05:26:26.386Z,4.00
2022-10-06T05:29:30.489Z,8.40
2022-10-06T05:32:36.047Z,4.97
2022-10-06T05:35:40.535Z,3.20
2022-10-06T05:38:44.744Z,4.60
2022-10-06T05:41:48.177Z,2.85
2022-10-06T05:44:51.233Z,2.70
2022-10-06T05:47:55.149Z,5.55
2022-10-06T05:51:08.664Z,4.70
2022-10-06T05:54:15.014Z,4.40
2022-10-06T05:57:18.707Z,2.65
2022-10-06T06:00:21.877Z,4.75
2022-10-06T06:03:25.094Z,3.63
2022-10-06T06:06:30.715Z,4.15
2022-10-06T06:09:36.852Z,5.15
2022-10-06T06:12:40.371Z,4.68
2022-10-06T06:19:12.446Z,2.97
2022-10-06T06:22:16.875Z,6.18
2022-10-06T06:25:22.337Z,4.45
2022-10-06T06:28:25.983Z,3.80
2022-10-06T06:31:34.459Z,3.55
2022-10-06T06:34:37.973Z,3.85
2022-10-06T06:37:43.390Z,4.60
2022-10-06T06:40:46.461Z,5.22
2022-10-06T06:43:51.721Z,9.07
2022-10-06T06:47:26.979Z,5.65
2022-10-06T06:50:32.594Z,6.45
2022-10-06T06:53:36.208Z,4.30
2022-10-06T06:56:39.894Z,6.35
2022-10-06T06:59:46.219Z,8.02
2022-10-06T07:03:01.235Z,8.30
2022-10-06T07:09:14.786Z,8.85
2022-10-06T07:12:18.554Z,8.13
2022-10-06T07:15:50.161Z,9.88
2022-10-06T07:19:11.932Z,3.05
2022-10-06T07:22:44.527Z,4.80
2022-10-06T07:25:53.725Z,4.95
2022-10-06T07:29:01.214Z,8.20
2022-10-06T07:32:05.485Z,12.57
2022-10-06T07:35:08.958Z,6.80
2022-10-06T07:38:12.761Z,8.77
2022-10-06T07:41:20.620Z,7.38
2022-10-06T07:44:33.154Z,2.55
2022-10-06T07:47:40.059Z,2.75
2022-10-06T07:50:46.184Z,4.65
2022-10-06T07:53:51.348Z,5.47
2022-10-06T07:57:00.937Z,5.45
2022-10-06T08:00:08.791Z,5.05
2022-10-06T08:03:18.561Z,6.05
2022-10-06T08:06:24.219Z,5.43
2022-10-06T08:09:27.644Z,7.05
2022-10-06T08:12:41.136Z,5.47
2022-10-06T08:15:44.202Z,7.20
2022-10-06T08:18:53.883Z,8.68
2022-10-06T08:21:59.880Z,5.65
2022-10-06T08:25:08.345Z,6.78
2022-10-06T08:28:12.878Z,10.15
2022-10-06T08:31:18.228Z,7.05
2022-10-06T08:34:22.284Z,6.82
2022-10-06T08:37:27.788Z,8.97
2022-10-06T08:40:30.774Z,9.48
2022-10-06T08:43:35.289Z,5.82
2022-10-06T08:46:42.290Z,7.32
2022-10-06T08:49:48.133Z,4.32
2022-10-06T08:52:56.757Z,4.32
2022-10-06T08:56:08.894Z,8.40
2022-10-06T08:59:12.704Z,7.70
2022-10-06T09:02:42.256Z,8.63
2022-10-06T09:05:46.309Z,12.70
2022-10-06T09:08:54.541Z,7.23
2022-10-06T09:12:28.030Z,9.50
2022-10-06T09:15:41.165Z,5.70
2022-10-06T09:19:09.511Z,6.00
2022-10-06T09:22:23.386Z,9.57
2022-10-06T09:25:29.357Z,7.00
2022-10-06T09:28:32.587Z,4.80
2022-10-06T09:31:42.730Z,5.97
2022-10-06T09:34:56.775Z,13.20
2022-10-06T09:38:08.921Z,11.77
2022-10-06T09:41:14.084Z,15.00
2022-10-06T09:47:47.840Z,13.13
2022-10-06T09:51:16.899Z,10.23
2022-10-06T09:54:19.995Z,9.25
2022-10-06T09:57:27.648Z,16.95
2022-10-06T10:00:39.156Z,24.02
2022-10-06T10:04:02.021Z,17.58
2022-10-06T10:07:27.636Z,14.55
2022-10-06T10:10:31.088Z,20.58
2022-10-06T10:13:43.668Z,18.58
2022-10-06T10:16:53.126Z,22.83
2022-10-06T10:19:56.828Z,25.27
2022-10-06T10:23:06.409Z,24.42
2022-10-06T10:26:32.426Z,17.05
2022-10-06T10:30:02.365Z,22.13
2022-10-06T10:33:31.408Z,16.77
2022-10-06T10:36:39.404Z,15.90
2022-10-06T10:39:52.787Z,24.17
2022-10-06T10:43:26.296Z,17.10
2022-10-06T10:46:32.455Z,27.13
2022-10-06T10:49:36.420Z,28.65
2022-10-06T10:52:45.199Z,27.83
2022-10-06T10:55:51.167Z,20.70
2022-10-06T10:59:07.743Z,24.38
2022-10-06T11:02:22.325Z,28.60
2022-10-06T11:06:01.454Z,32.05
2022-10-06T11:09:11.677Z,11.68
2022-10-06T11:12:49.112Z,7.85
2022-10-06T11:16:19.769Z,8.10
2022-10-06T11:19:29.680Z,7.82
2022-10-06T11:22:42.226Z,9.35
2022-10-06T11:26:03.079Z,9.77
2022-10-06T11:29:39.768Z,7.57
2022-10-06T11:32:45.829Z,5.40
2022-10-06T11:35:49.534Z,4.82
2022-10-06T11:39:23.841Z,2.72
2022-10-06T11:42:57.500Z,3.80
2022-10-06T11:46:31.193Z,7.05
2022-10-06T11:49:48.364Z,5.40
2022-10-06T11:52:53.783Z,7.13
2022-10-06T11:56:18.307Z,5.25
2022-10-06T11:59:29.223Z,3.85
2022-10-06T12:02:47.098Z,8.77
2022-10-06T12:05:56.144Z,7.07
2022-10-06T12:09:00.121Z,8.70
2022-10-06T12:12:25.998Z,16.98
2022-10-06T12:19:17.393Z,15.73
2022-10-06T12:22:25.641Z,15.15
2022-10-06T12:25:40.354Z,12.50
2022-10-06T12:28:55.173Z,17.48
2022-10-06T12:32:25.667Z,13.10
2022-10-06T12:35:40.542Z,13.07
2022-10-06T12:39:22.912Z,12.82
2022-10-06T12:42:31.898Z,13.82
2022-10-06T12:45:35.505Z,11.77
2022-10-06T12:48:56.625Z,17.58
2022-10-06T12:52:10.798Z,15.73
2022-10-06T12:55:35.700Z,7.00
2022-10-06T12:58:39.432Z,8.85
2022-10-06T13:01:42.664Z,6.00
2022-10-06T13:04:55.941Z,6.20
2022-10-06T13:08:20.954Z,6.35
2022-10-06T13:11:27.933Z,5.15
2022-10-06T13:14:31.180Z,11.48
2022-10-06T13:17:34.166Z,10.77
2022-10-06T13:20:49.528Z,5.22
2022-10-06T13:23:52.942Z,7.55
2022-10-06T13:26:56.807Z,6.97
2022-10-06T13:30:20.602Z,6.03
2022-10-06T13:33:24.769Z,6.75
2022-10-06T13:36:35.459Z,13.63
2022-10-06T13:39:39.278Z,6.05
2022-10-06T13:42:45.800Z,6.05
2022-10-06T13:45:49.323Z,4.70
2022-10-06T13:48:57.803Z,6.40
2022-10-06T13:52:16.167Z,5.95
2022-10-06T13:55:23.668Z,8.10
2022-10-06T13:58:29.099Z,5.57
2022-10-06T14:01:32.403Z,5.72
2022-10-06T14:04:37.410Z,10.20
2022-10-06T14:07:45.980Z,7.95
2022-10-06T14:10:53.837Z,8.77
2022-10-06T14:14:08.315Z,11.63
2022-10-06T14:17:22.857Z,9.00
2022-10-06T14:20:46.504Z,16.50
2022-10-06T14:23:57.318Z,12.00
2022-10-06T14:27:06.683Z,14.93
2022-10-06T14:30:10.437Z,9.02
2022-10-06T14:33:13.582Z,19.02
2022-10-06T14:36:19.716Z,14.30
2022-10-06T14:39:23.086Z,17.77
2022-10-06T14:42:26.505Z,18.05
2022-10-06T14:45:30.984Z,19.40
2022-10-06T14:48:37.896Z,22.10
2022-10-06T14:51:45.126Z,20.77
2022-10-06T14:54:48.374Z,21.65
2022-10-06T14:57:51.679Z,17.67
2022-10-06T15:00:55.022Z,19.23
2022-10-06T15:04:12.762Z,19.67
2022-10-06T15:07:34.340Z,18.15
2022-10-06T15:10:39.473Z,18.35
2022-10-06T15:35:11.616Z,20.17
2022-10-06T15:38:14.848Z,17.25
2022-10-06T15:41:18.303Z,17.42
2022-10-06T15:44:22.465Z,15.95
2022-10-06T15:47:25.886Z,12.80
2022-10-06T15:50:30.860Z,15.88
2022-10-06T15:53:33.898Z,14.35
2022-10-06T15:56:38.176Z,12.43
2022-10-06T15:59:41.366Z,11.85
2022-10-06T16:02:45.536Z,10.95
2022-10-06T16:05:59.955Z,10.93
2022-10-06T16:09:02.935Z,10.60
2022-10-06T16:12:08.365Z,15.98
2022-10-06T16:15:11.810Z,11.38
2022-10-06T16:18:14.866Z,14.93
2022-10-06T16:21:17.903Z,12.77
2022-10-06T16:24:22.671Z,9.63
2022-10-06T16:30:31.964Z,13.90
2022-10-06T16:33:35.063Z,13.05
2022-10-06T16:36:39.224Z,8.32
2022-10-06T16:39:42.447Z,9.65
2022-10-06T16:42:46.274Z,11.27
2022-10-06T16:46:02.198Z,11.10
2022-10-06T16:49:07.994Z,13.73
2022-10-06T16:52:11.025Z,14.52
2022-10-06T16:55:14.165Z,15.63
2022-10-06T16:58:17.299Z,24.73
2022-10-06T17:01:24.190Z,17.73
2022-10-06T17:04:27.321Z,15.45
2022-10-06T17:07:30.384Z,18.13
2022-10-06T17:10:33.561Z,18.23
2022-10-06T17:13:39.406Z,15.55
2022-10-06T17:16:45.091Z,19.38
2022-10-06T17:19:48.149Z,20.50
2022-10-06T17:22:51.895Z,16.92
2022-10-06T17:26:28.006Z,17.00
2022-10-06T17:29:31.142Z,15.80
2022-10-06T17:32:34.508Z,20.15
2022-10-06T17:35:40.499Z,17.35
2022-10-06T17:38:46.187Z,19.17
2022-10-06T17:41:51.016Z,19.50
2022-10-06T17:47:56.760Z,19.08
2022-10-06T17:51:02.998Z,23.05
2022-10-06T17:54:08.296Z,16.92
2022-10-06T17:57:11.603Z,14.25
2022-10-06T18:00:18.366Z,21.48
2022-10-06T18:03:27.006Z,17.52
2022-10-06T18:06:32.780Z,15.10
2022-10-06T18:09:36.487Z,20.80
2022-10-06T18:12:39.876Z,19.40
2022-10-06T18:15:43.154Z,17.35
2022-10-06T18:18:48.208Z,12.95
2022-10-06T18:21:51.650Z,21.30
2022-10-06T18:24:59.102Z,12.10
2022-10-06T18:28:02.929Z,11.68
2022-10-06T18:31:07.008Z,13.98
2022-10-06T18:40:38.906Z,20.55
2022-10-06T18:43:41.961Z,12.32
2022-10-06T18:47:03.668Z,11.90
2022-10-06T18:50:07.122Z,19.35
2022-10-06T18:53:10.381Z,18.02
2022-10-06T18:56:14.155Z,23.15
2022-10-06T18:59:17.364Z,23.87
2022-10-06T19:02:20.650Z,27.23
2022-10-06T19:05:24.657Z,22.50
2022-10-06T19:08:27.967Z,17.52
2022-10-06T19:11:49.098Z,13.93
2022-10-06T19:14:52.503Z,20.48
2022-10-06T19:17:55.888Z,12.20
2022-10-06T19:20:59.281Z,14.15
2022-10-06T19:24:02.398Z,10.93
2022-10-06T19:27:12.864Z,14.68
2022-10-06T19:30:16.492Z,22.25
2022-10-06T19:33:19.742Z,8.95
2022-10-06T19:36:22.909Z,7.80
2022-10-06T19:39:35.760Z,9.73
2022-10-06T19:42:48.007Z,8.05
2022-10-06T19:45:58.689Z,7.90
2022-10-06T19:49:06.191Z,6.03
2022-10-06T19:52:11.591Z,7.88
2022-10-06T19:55:14.765Z,7.18
2022-10-06T19:58:17.842Z,8.15
2022-10-06T20:01:21.118Z,10.15
2022-10-06T20:04:25.220Z,8.40
2022-10-06T20:07:28.345Z,8.40
2022-10-06T20:10:31.369Z,11.82
2022-10-06T20:13:37.498Z,17.55
2022-10-06T20:16:42.407Z,14.07
2022-10-06T20:19:46.623Z,25.98
2022-10-06T20:22:50.415Z,16.45
2022-10-06T20:25:53.488Z,19.60
2022-10-06T20:28:56.588Z,21.98
2022-10-06T20:31:59.848Z,20.08
2022-10-06T20:35:03.283Z,24.55
2022-10-06T20:38:09.484Z,24.17
2022-10-06T20:44:19.038Z,28.38
2022-10-06T20:47:22.281Z,30.50
2022-10-06T20:50:25.379Z,26.63
2022-10-06T20:53:34.357Z,29.10
2022-10-06T20:56:37.354Z,22.30
2022-10-06T20:59:40.463Z,21.48
2022-10-06T21:02:43.581Z,25.15
2022-10-06T21:05:50.726Z,21.10
2022-10-06T21:08:53.754Z,25.95
2022-10-06T21:11:59.670Z,25.58
2022-10-06T21:15:02.665Z,28.63
2022-10-06T21:18:06.269Z,29.30
2022-10-06T21:21:09.520Z,22.73
2022-10-06T21:24:12.938Z,32.47
2022-10-06T21:27:18.993Z,31.38
2022-10-06T21:30:22.007Z,35.20
2022-10-06T21:33:25.621Z,18.83
2022-10-06T21:36:31.604Z,32.08
2022-10-06T21:39:34.606Z,24.35
2022-10-06T21:42:37.753Z,28.75
2022-10-06T21:45:40.839Z,31.02
2022-10-06T21:48:43.881Z,31.33
2022-10-06T21:51:49.221Z,24.08
2022-10-06T21:54:52.357Z,22.27
2022-10-06T21:57:55.322Z,28.40
2022-10-06T22:01:03.047Z,26.02
2022-10-06T22:04:07.197Z,21.08
2022-10-06T22:07:10.164Z,21.40
2022-10-06T22:10:13.206Z,26.38
2022-10-06T22:13:16.161Z,20.27
2022-10-06T22:16:21.401Z,19.83
2022-10-06T22:19:24.369Z,19.92
2022-10-06T22:22:27.395Z,17.85
2022-10-06T22:25:31.100Z,22.75
2022-10-06T22:28:34.933Z,21.03
2022-10-06T22:31:42.941Z,21.77
2022-10-06T22:34:46.497Z,41.50
2022-10-06T22:37:50.137Z,25.77
2022-10-06T22:40:53.353Z,26.25
2022-10-06T22:43:58.354Z,21.55
2022-10-06T22:47:01.580Z,24.98
2022-10-06T22:50:05.183Z,27.33
2022-10-06T22:53:08.157Z,24.88
2022-10-06T22:56:11.077Z,28.40
2022-10-06T22:59:14.656Z,26.83
2022-10-06T23:02:18.139Z,27.35
2022-10-06T23:05:22.119Z,23.95
2022-10-06T23:08:28.964Z,25.50
2022-10-06T23:11:34.287Z,31.77
2022-10-06T23:14:37.213Z,31.23
2022-10-06T23:17:40.863Z,29.27
2022-10-06T23:20:44.071Z,28.53
2022-10-06T23:23:51.756Z,35.40
2022-10-06T23:26:58.504Z,41.50
2022-10-06T23:30:01.780Z,38.30
2022-10-06T23:33:04.869Z,37.47
2022-10-06T23:36:10.644Z,31.88
2022-10-06T23:39:13.886Z,38.90
2022-10-06T23:42:16.851Z,44.33
2022-10-06T23:45:19.820Z,41.00
2022-10-06T23:48:23.124Z,33.85
2022-10-06T23:51:26.167Z,40.40
2022-10-06T23:54:29.902Z,42.35
2022-10-06T23:57:32.875Z,47.85
